メインページ
METAR-TAF:

METAR-TAF

空港 :

Camiri, ボリビア

緯度: 20-00S, 経度: 063-32W, 海抜: 798m

現時点の気象観測

当レポートは21分前の17:00(UTC)に作成
無風
気温 29°C
湿度 58%
気圧 1014 hPa
視程10km以上
高度3300ftの雲はほとんどない
高度7000ftの千切れ雲あり

METAR: SLCA 171700Z 00000KT 9999 FEW033 BKN070 29/20 Q1014

時間: 13:21 (17:21 UTC)


TAF: 見つかりません

4,000以上の空港の気象観測と天気予報(METAR報とTAF報)

利用可能な観測所は地図上に黄色い丸と赤い丸で示す。

丸の上にカーソルを重ねると観測所名を参照できる。

次にクリックすると気象観測と天気予報を参照できる。

マップの切り替え:黒色「×」印の緑ボタンをクリックして拡大、「-」印の緑ボタンをクリックして縮小、緑色の三角印をクリックして隣りの地図に切り替え


METAR-TAF: